Time;durP1;ratioP1;P1;durP2;ratioP2;P2;SDS_P1;SDS_P2;PMS_P1;PMS_P2;Temp;Humidity;BMP_temperature;BMP_pressure;BME280_temperature;BME280_humidity;BME280_pressure;Samples;Min_cycle;Max_cycle;Signal;HPM_P1;HPM_P2
2022/05/15 00:01:53;;;;;;;21.65;6.10;;;;;;;8.30;94.72;102251.75;5074183;28;20147;-75
2022/05/15 00:04:19;;;;;;;27.45;7.50;;;;;;;8.28;95.41;102251.00;5074093;28;20115;-75
2022/05/15 00:06:44;;;;;;;16.73;6.32;;;;;;;8.25;95.20;102243.19;5074044;28;20039;-75
2022/05/15 00:09:10;;;;;;;14.85;5.75;;;;;;;8.20;94.61;102247.06;5074075;28;20036;-78
2022/05/15 00:11:35;;;;;;;20.83;7.03;;;;;;;8.18;94.82;102241.88;5072828;28;20037;-75
2022/05/15 00:14:02;;;;;;;29.67;8.27;;;;;;;8.17;96.08;102236.66;5055610;28;20392;-75
2022/05/15 00:16:30;;;;;;;19.10;6.70;;;;;;;8.14;97.15;102232.38;5073610;28;20037;-75
2022/05/15 00:18:56;;;;;;;17.75;6.45;;;;;;;8.10;96.84;102221.06;5073391;28;20487;-75
2022/05/15 00:21:21;;;;;;;19.17;6.70;;;;;;;8.03;95.58;102219.75;5073866;28;20033;-75
2022/05/15 00:23:47;;;;;;;24.95;7.20;;;;;;;8.02;95.58;102223.34;5073583;28;20511;-75
2022/05/15 00:26:13;;;;;;;12.43;5.32;;;;;;;7.99;95.43;102227.97;5073979;28;20028;-78
2022/05/15 00:28:39;;;;;;;15.63;6.03;;;;;;;7.95;94.80;102217.50;5073647;28;20020;-76
2022/05/15 00:31:04;;;;;;;15.30;5.50;;;;;;;7.92;94.21;102220.34;5073607;28;20036;-75
2022/05/15 00:33:30;;;;;;;15.77;5.50;;;;;;;7.89;93.68;102219.69;5073451;28;20491;-75
2022/05/15 00:35:56;;;;;;;21.25;6.70;;;;;;;7.88;93.96;102221.47;5055432;28;20040;-75
2022/05/15 00:38:22;;;;;;;17.20;6.57;;;;;;;7.86;94.55;102217.22;5055366;28;20032;-75
2022/05/15 00:40:50;;;;;;;15.57;6.00;;;;;;;7.83;95.02;102215.56;5074076;28;20029;-74
2022/05/15 00:43:34;;;;;;;17.05;6.85;;;;;;;7.84;95.18;102216.44;5073746;28;20058;-77
2022/05/15 00:46:00;;;;;;;17.20;6.63;;;;;;;7.85;95.52;102223.44;5073294;28;20085;-74
2022/05/15 00:48:25;;;;;;;22.40;7.25;;;;;;;7.86;96.96;102212.75;5073443;28;20060;-75
2022/05/15 00:50:51;;;;;;;20.27;7.93;;;;;;;7.87;98.09;102221.56;5073307;28;20483;-74
2022/05/15 00:53:17;;;;;;;17.27;7.65;;;;;;;7.84;98.13;102225.25;5073815;28;20364;-77
2022/05/15 00:55:49;;;;;;;22.58;7.40;;;;;;;7.81;97.14;102225.41;5055646;28;20052;-74
2022/05/15 00:58:17;;;;;;;;;;;;;;;7.79;96.38;102229.09;5074032;28;20033;-74
2022/05/15 01:00:43;;;;;;;19.20;7.70;;;;;;;7.79;96.47;102223.78;5073496;28;19909;-75
2022/05/15 01:03:12;;;;;;;21.10;7.28;;;;;;;7.76;96.89;102223.03;5073379;28;20039;-75
2022/05/15 01:05:42;;;;;;;16.52;7.18;;;;;;;7.72;96.31;102218.84;5072818;28;20052;-75
2022/05/15 01:08:08;;;;;;;18.20;7.10;;;;;;;7.72;96.06;102220.66;5073135;28;20021;-75
2022/05/15 01:10:41;;;;;;;17.13;6.25;;;;;;;7.67;95.71;102226.19;5055806;28;20029;-75
2022/05/15 01:13:08;;;;;;;21.95;6.45;;;;;;;7.67;95.65;102223.53;5055116;28;20468;-75
2022/05/15 01:15:36;;;;;;;14.57;6.28;;;;;;;7.66;95.33;102223.63;5072660;28;20033;-75
2022/05/15 01:18:02;;;;;;;21.05;8.15;;;;;;;7.66;95.42;102220.97;5055578;28;20092;-75
2022/05/15 01:20:29;;;;;;;21.15;6.90;;;;;;;7.63;95.31;102219.38;5073033;28;20028;-75
2022/05/15 01:22:54;;;;;;;18.58;7.13;;;;;;;7.64;95.27;102222.84;5073041;28;20514;-75
2022/05/15 01:25:26;;;;;;;17.15;6.13;;;;;;;7.63;95.03;102226.44;5059287;28;20065;-78
2022/05/15 01:28:02;;;;;;;19.08;6.30;;;;;;;7.62;95.53;102222.94;5076852;28;20032;-75
2022/05/15 01:30:29;;;;;;;18.20;6.43;;;;;;;7.60;95.89;102219.53;5077087;28;20115;-75
2022/05/15 01:32:54;;;;;;;20.00;6.72;;;;;;;7.60;95.60;102219.53;5059046;28;20033;-75
2022/05/15 01:35:20;;;;;;;18.15;6.95;;;;;;;7.57;95.45;102217.91;5077372;28;20128;-78
2022/05/15 01:37:45;;;;;;;18.58;6.40;;;;;;;7.57;95.42;102217.06;5058822;28;20468;-75
2022/05/15 01:40:11;;;;;;;24.83;7.38;;;;;;;7.57;95.72;102217.06;5076976;28;20037;-75
2022/05/15 01:42:37;;;;;;;25.98;6.90;;;;;;;7.58;96.12;102214.34;5077019;28;20024;-75
2022/05/15 01:45:05;;;;;;;22.23;6.68;;;;;;;7.56;95.81;102208.25;5076502;28;20074;-75
2022/05/15 01:47:30;;;;;;;19.55;5.90;;;;;;;7.56;96.04;102212.69;5076731;28;20043;-75
2022/05/15 01:49:56;;;;;;;18.90;6.95;;;;;;;7.55;96.43;102205.69;5076866;28;20036;-75
2022/05/15 01:52:21;;;;;;;20.02;6.05;;;;;;;7.53;96.36;102204.94;5076684;28;20032;-75
2022/05/15 01:54:47;;;;;;;20.92;7.50;;;;;;;7.52;96.81;102205.84;5076348;28;20029;-75
2022/05/15 01:57:12;;;;;;;25.35;7.47;;;;;;;7.50;96.66;102205.94;5076766;28;20491;-75
2022/05/15 01:59:38;;;;;;;20.55;6.43;;;;;;;7.47;96.45;102200.81;5076509;28;20464;-75
2022/05/15 02:02:05;;;;;;;22.52;7.38;;;;;;;7.48;97.34;102202.53;5076746;28;20040;-75
2022/05/15 02:04:30;;;;;;;27.30;7.93;;;;;;;7.48;97.58;102206.97;5076983;28;20035;-75
2022/05/15 02:06:56;;;;;;;22.98;6.57;;;;;;;7.47;97.56;102206.13;5078003;28;20024;-75
2022/05/15 02:09:21;;;;;;;19.45;6.20;;;;;;;7.46;97.55;102207.03;5077357;28;20044;-74
2022/05/15 02:11:47;;;;;;;17.10;6.53;;;;;;;7.46;97.65;102211.50;5077909;28;20033;-74
2022/05/15 02:14:12;;;;;;;21.10;6.90;;;;;;;7.42;97.50;102213.47;5076237;28;20035;-75
2022/05/15 02:16:38;;;;;;;21.50;6.70;;;;;;;7.41;97.80;102201.16;5076040;28;20524;-75
2022/05/15 02:19:03;;;;;;;18.50;6.30;;;;;;;7.38;97.61;102204.81;5076508;28;20512;-75
2022/05/15 02:21:30;;;;;;;16.25;5.68;;;;;;;7.37;97.36;102210.22;5076163;28;20060;-76
2022/05/15 02:23:57;;;;;;;21.42;5.97;;;;;;;7.33;97.18;102206.88;5075659;28;20076;-75
2022/05/15 02:26:24;;;;;;;15.27;5.60;;;;;;;7.31;97.32;102197.31;5075448;28;20053;-75
2022/05/15 02:28:50;;;;;;;19.65;6.68;;;;;;;7.30;96.88;102204.41;5058020;28;20037;-74
2022/05/15 02:31:16;;;;;;;12.95;5.50;;;;;;;7.28;96.78;102210.72;5075732;28;20468;-74
2022/05/15 02:33:41;;;;;;;18.33;6.30;;;;;;;7.23;96.64;102201.22;5041053;28;20033;-75
2022/05/15 02:36:07;;;;;;;22.20;7.00;;;;;;;7.23;96.76;102203.03;5056803;28;20035;-75
2022/05/15 02:38:34;;;;;;;16.13;5.10;;;;;;;7.21;97.14;102195.19;5057542;28;20037;-75
2022/05/15 02:41:00;;;;;;;20.10;6.07;;;;;;;7.20;96.56;102200.56;5075642;28;20028;-75
2022/05/15 02:43:25;;;;;;;18.27;5.55;;;;;;;7.15;96.02;102199.94;5075487;28;20480;-74
2022/05/15 02:45:50;;;;;;;25.63;6.60;;;;;;;7.13;95.96;102196.53;5057485;28;20032;-74
2022/05/15 02:51:06;;;;;;;14.48;6.15;;;;;;;7.06;96.38;102199.50;5075985;28;20055;-74
2022/05/15 02:53:37;;;;;;;18.42;5.88;;;;;;;7.02;96.17;102195.31;5043066;28;20483;-77
2022/05/15 02:56:06;;;;;;;18.15;5.75;;;;;;;6.98;95.79;102196.41;5075592;28;20028;-74
2022/05/15 02:58:32;;;;;;;23.52;6.82;;;;;;;6.97;95.85;102188.56;5074867;28;20115;-77
2022/05/15 03:00:57;;;;;;;15.20;5.10;;;;;;;6.93;95.83;102190.53;5075256;28;20487;-74
2022/05/15 03:03:25;;;;;;;16.77;5.25;;;;;;;6.92;96.57;102188.81;5074952;28;20032;-74
2022/05/15 03:05:50;;;;;;;15.10;5.28;;;;;;;6.88;96.25;102196.06;5075002;28;20036;-75
2022/05/15 03:08:16;;;;;;;21.58;5.78;;;;;;;6.86;96.17;102189.97;5075420;28;20032;-75
2022/05/15 03:10:41;;;;;;;18.63;6.35;;;;;;;6.82;95.59;102183.16;5075006;28;20515;-75
2022/05/15 03:13:07;;;;;;;18.80;5.85;;;;;;;6.84;96.75;102181.28;5075554;28;20475;-74
2022/05/15 03:15:32;;;;;;;17.13;5.75;;;;;;;6.80;97.34;102173.59;5074900;28;20104;-75
2022/05/15 03:17:57;;;;;;;19.38;6.00;;;;;;;6.79;97.70;102178.03;5074405;28;20036;-75
2022/05/15 03:20:27;;;;;;;23.75;7.57;;;;;;;6.76;97.80;102175.53;5074810;28;20033;-74
2022/05/15 03:22:55;;;;;;;17.02;5.55;;;;;;;6.74;97.80;102173.94;5075068;28;20059;-75
2022/05/15 03:25:21;;;;;;;19.65;6.43;;;;;;;6.71;97.65;102167.00;5074408;28;20053;-75
2022/05/15 03:27:46;;;;;;;20.58;6.18;;;;;;;6.69;97.61;102172.38;5057587;28;20036;-75
2022/05/15 03:30:12;;;;;;;15.20;5.25;;;;;;;6.67;96.96;102170.72;5056855;28;20040;-74
2022/05/15 03:32:38;;;;;;;19.05;6.18;;;;;;;6.64;97.22;102169.13;5074441;28;20048;-75
2022/05/15 03:35:05;;;;;;;22.27;6.82;;;;;;;6.62;97.02;102165.69;5074215;28;20442;-74
2022/05/15 03:37:31;;;;;;;16.35;5.57;;;;;;;6.59;96.90;102157.06;5074113;28;20032;-74
2022/05/15 03:39:56;;;;;;;17.15;5.85;;;;;;;6.58;96.97;102152.72;5074790;28;20032;-75
2022/05/15 03:42:24;;;;;;;24.15;6.82;;;;;;;6.58;97.29;102158.84;5074191;28;20064;-74
2022/05/15 03:44:50;;;;;;;24.95;6.40;;;;;;;6.57;97.67;102159.81;5074167;28;20039;-74
2022/05/15 03:47:16;;;;;;;16.13;5.50;;;;;;;6.56;97.75;102162.53;5073863;28;20387;-74
2022/05/15 03:49:41;;;;;;;13.52;4.55;;;;;;;6.55;97.44;102161.66;5056232;28;20086;-75
2022/05/15 03:52:07;;;;;;;20.75;5.72;;;;;;;6.52;97.08;102159.16;5074190;28;20033;-74
2022/05/15 03:54:32;;;;;;;17.95;5.28;;;;;;;6.51;96.99;102155.69;5074107;28;20029;-74
2022/05/15 03:56:58;;;;;;;22.98;6.32;;;;;;;6.51;96.95;102171.56;5056542;28;20033;-74
2022/05/15 03:59:27;;;;;;;14.48;5.43;;;;;;;6.49;97.38;102160.22;5074059;28;20085;-74
2022/05/15 04:01:53;;;;;;;22.00;5.65;;;;;;;6.51;97.11;102162.78;5073883;28;20020;-74
2022/05/15 04:04:19;;;;;;;17.92;5.68;;;;;;;6.49;97.14;102160.22;5074502;28;20028;-74
2022/05/15 04:06:45;;;;;;;24.75;6.07;;;;;;;6.51;97.21;102163.63;5073781;28;20067;-74
2022/05/15 04:09:11;;;;;;;17.70;5.40;;;;;;;6.54;97.85;102165.25;5074278;28;20125;-74
2022/05/15 04:11:36;;;;;;;15.32;5.10;;;;;;;6.55;98.43;102158.16;5073756;28;20024;-74
2022/05/15 04:14:02;;;;;;;21.13;5.72;;;;;;;6.56;98.07;102162.53;5074158;28;20024;-74
2022/05/15 04:16:28;;;;;;;19.45;5.45;;;;;;;6.56;97.95;102166.00;5073536;28;20048;-74
2022/05/15 04:18:55;;;;;;;16.65;5.70;;;;;;;6.56;97.82;102167.81;5055581;28;20184;-74
2022/05/15 04:21:20;;;;;;;22.77;7.00;;;;;;;6.61;98.85;102169.25;5073515;28;20034;-74
2022/05/15 04:23:46;;;;;;;18.48;5.55;;;;;;;6.62;98.85;102170.13;5073649;28;20059;-75
2022/05/15 04:26:11;;;;;;;18.83;5.57;;;;;;;6.62;98.89;102172.78;5055545;28;20037;-74
2022/05/15 04:28:36;;;;;;;16.35;5.45;;;;;;;6.63;98.69;102166.56;5073528;28;20024;-74
2022/05/15 04:31:03;;;;;;;23.35;7.05;;;;;;;6.66;98.88;102172.53;5055606;28;20086;-74
2022/05/15 04:33:29;;;;;;;21.27;5.97;;;;;;;6.70;99.43;102174.09;5073232;28;20043;-74
2022/05/15 04:35:54;;;;;;;16.88;5.68;;;;;;;6.75;99.75;102172.97;5073033;28;20029;-74
2022/05/15 04:38:20;;;;;;;16.60;5.72;;;;;;;6.78;100.00;102170.19;5073171;28;20074;-74
2022/05/15 04:40:45;;;;;;;28.27;6.18;;;;;;;6.79;100.00;102170.09;5055783;28;20024;-78
2022/05/15 04:43:10;;;;;;;16.42;5.35;;;;;;;6.82;100.00;102158.47;5073794;28;20097;-74
2022/05/15 04:45:36;;;;;;;16.25;5.97;;;;;;;6.86;100.00;102160.88;5073559;28;20059;-74
2022/05/15 04:48:02;;;;;;;21.33;6.13;;;;;;;6.90;100.00;102156.28;5073918;28;20024;-74
2022/05/15 04:50:27;;;;;;;23.80;6.20;;;;;;;6.96;100.00;102155.97;5073323;28;20465;-75
2022/05/15 04:52:52;;;;;;;32.58;7.40;;;;;;;7.03;100.00;102153.81;5072878;28;20086;-74
2022/05/15 04:55:18;;;;;;;22.00;6.70;;;;;;;7.07;100.00;102150.91;5073683;28;20024;-74
2022/05/15 04:57:43;;;;;;;17.23;6.10;;;;;;;7.14;100.00;102155.91;5072312;28;20036;-74
2022/05/15 05:00:13;;;;;;;20.77;6.43;;;;;;;7.21;100.00;102157.25;5073310;28;20039;-74
2022/05/15 05:02:38;;;;;;;23.02;6.43;;;;;;;7.26;100.00;102155.22;5073104;28;20032;-74
2022/05/15 05:05:04;;;;;;;16.15;6.28;;;;;;;7.33;100.00;102161.00;5073284;28;20038;-74
2022/05/15 05:07:30;;;;;;;16.60;5.95;;;;;;;7.39;100.00;102160.69;5073073;28;20037;-75
2022/05/15 05:09:56;;;;;;;17.73;5.72;;;;;;;7.48;100.00;102160.16;5072992;28;20059;-74
2022/05/15 05:12:22;;;;;;;26.30;7.50;;;;;;;7.57;100.00;102156.16;5055160;28;20443;-75
2022/05/15 05:14:47;;;;;;;23.88;6.65;;;;;;;7.69;100.00;102151.94;5072800;28;20104;-74
2022/05/15 05:17:14;;;;;;;30.40;7.13;;;;;;;7.80;100.00;102159.25;5072964;28;20051;-74
2022/05/15 05:19:39;;;;;;;22.17;6.05;;;;;;;7.88;100.00;102155.22;5072994;28;20029;-74
2022/05/15 05:22:05;;;;;;;30.33;7.22;;;;;;;7.99;100.00;102157.25;5072819;28;20036;-74
2022/05/15 05:24:30;;;;;;;27.08;6.32;;;;;;;8.10;100.00;102162.75;5054582;28;20143;-74
2022/05/15 05:26:56;;;;;;;30.13;6.47;;;;;;;8.20;100.00;102152.47;5054829;28;20060;-74
2022/05/15 05:29:22;;;;;;;28.38;7.00;;;;;;;8.28;100.00;102154.66;5072642;28;20460;-74
2022/05/15 05:31:48;;;;;;;31.67;7.07;;;;;;;8.38;100.00;102154.97;5055101;28;20040;-74
2022/05/15 05:34:14;;;;;;;30.23;6.80;;;;;;;8.51;100.00;102144.47;5072917;28;20108;-74
2022/05/15 05:36:40;;;;;;;20.80;6.15;;;;;;;8.61;100.00;102153.59;5055082;28;20071;-74
2022/05/15 05:39:05;;;;;;;27.95;7.00;;;;;;;8.72;100.00;102156.44;5072801;28;20030;-74
2022/05/15 05:41:31;;;;;;;34.08;7.95;;;;;;;8.86;100.00;102157.38;5072838;28;20032;-74
2022/05/15 05:43:58;;;;;;;23.30;6.50;;;;;;;8.95;100.00;102160.31;5072611;28;20372;-75
2022/05/15 05:46:24;;;;;;;33.47;7.25;;;;;;;9.09;100.00;102161.25;5072701;28;20040;-74
2022/05/15 05:48:49;;;;;;;32.72;6.25;;;;;;;9.24;100.00;102162.06;5073266;28;20029;-74
2022/05/15 05:51:15;;;;;;;36.70;6.45;;;;;;;9.39;100.00;102158.44;5055324;28;20025;-74
2022/05/15 05:53:41;;;;;;;27.13;6.82;;;;;;;9.58;100.00;102160.75;5072732;28;20040;-74
2022/05/15 05:56:07;;;;;;;31.55;6.43;;;;;;;9.76;100.00;102163.16;5072318;28;20059;-74
2022/05/15 05:58:33;;;;;;;28.33;6.30;;;;;;;9.95;100.00;102165.44;5055121;28;20036;-74
2022/05/15 06:00:58;;;;;;;28.77;6.63;;;;;;;10.13;100.00;102171.34;5072564;28;20035;-75
2022/05/15 06:06:07;;;;;;;25.30;5.90;;;;;;;10.54;98.17;102173.84;5072309;28;20491;-73
2022/05/15 06:08:33;;;;;;;30.55;6.35;;;;;;;10.75;95.48;102176.00;5072477;28;20033;-73
2022/05/15 06:10:59;;;;;;;25.98;5.95;;;;;;;10.97;93.59;102177.97;5074335;28;20041;-78
2022/05/15 06:13:25;;;;;;;20.92;6.15;;;;;;;11.20;92.39;102180.81;5076402;28;20155;-74
2022/05/15 06:15:52;;;;;;;28.13;6.07;;;;;;;11.41;90.59;102181.06;5075922;28;20476;-75
2022/05/15 06:18:17;;;;;;;24.40;6.07;;;;;;;11.58;88.67;102179.81;5076401;28;20108;-75
2022/05/15 06:20:43;;;;;;;29.15;6.00;;;;;;;11.75;88.32;102171.44;5075930;28;20162;-74
2022/05/15 06:23:08;;;;;;;22.17;6.95;;;;;;;11.92;86.91;102174.66;5075715;28;20028;-75
2022/05/15 06:25:33;;;;;;;26.50;6.03;;;;;;;12.10;86.60;102175.13;5076415;28;20056;-75
2022/05/15 06:27:59;;;;;;;23.20;6.35;;;;;;;12.27;86.09;102174.69;5075508;28;20029;-79
2022/05/15 06:30:24;;;;;;;26.98;6.35;;;;;;;12.46;83.77;102173.25;5075773;28;20115;-74
2022/05/15 06:32:50;;;;;;;17.85;5.45;;;;;;;12.62;83.58;102172.91;5075780;28;20036;-74
2022/05/15 06:35:16;;;;;;;30.52;6.30;;;;;;;12.76;82.99;102174.50;5076209;28;20468;-74
2022/05/15 06:37:41;;;;;;;20.80;5.45;;;;;;;12.95;82.41;102174.75;5076200;28;20128;-74
2022/05/15 06:40:09;;;;;;;23.23;5.55;;;;;;;13.14;81.35;102181.31;5075797;28;20036;-74
2022/05/15 06:42:34;;;;;;;28.50;6.03;;;;;;;13.26;78.38;102179.47;5075474;28;20032;-74
2022/05/15 06:44:59;;;;;;;32.10;6.40;;;;;;;13.42;79.67;102171.94;5075745;28;20036;-76
2022/05/15 06:47:25;;;;;;;20.73;6.00;;;;;;;13.58;77.47;102175.03;5057449;28;20068;-73
2022/05/15 06:49:51;;;;;;;25.48;6.07;;;;;;;13.77;77.31;102164.66;5058299;28;20330;-73
2022/05/15 06:52:17;;;;;;;22.75;6.65;;;;;;;13.96;77.71;102161.25;5057500;28;20033;-73
2022/05/15 06:54:42;;;;;;;27.08;7.28;;;;;;;14.17;76.12;102163.97;5075432;28;20037;-72
2022/05/15 06:59:52;;;;;;;24.40;6.03;;;;;;;14.40;74.63;102149.44;5075334;28;20063;-76
2022/05/15 07:02:18;;;;;;;21.73;6.40;;;;;;;14.50;74.02;102151.34;5074862;28;20456;-76
2022/05/15 07:04:43;;;;;;;20.42;5.68;;;;;;;14.65;74.56;102154.56;5057654;28;20129;-75
2022/05/15 07:07:09;;;;;;;26.00;6.43;;;;;;;14.72;73.49;102158.38;5075504;28;20071;-76
2022/05/15 07:09:35;;;;;;;20.58;5.50;;;;;;;14.86;72.64;102165.22;5075362;28;20508;-75
2022/05/15 07:12:03;;;;;;;31.33;6.40;;;;;;;14.95;72.25;102162.56;5075159;28;20031;-76
2022/05/15 07:14:28;;;;;;;28.10;6.07;;;;;;;15.10;71.52;102160.34;5075103;28;20040;-74
2022/05/15 07:16:54;;;;;;;27.00;6.20;;;;;;;15.23;70.36;102173.50;5075197;28;20514;-75
2022/05/15 07:19:19;;;;;;;24.15;5.80;;;;;;;15.31;68.85;102170.97;5074646;28;20044;-77
2022/05/15 07:21:45;;;;;;;28.50;6.53;;;;;;;15.46;69.49;102167.91;5074263;28;20120;-76
2022/05/15 07:24:10;;;;;;;22.25;6.15;;;;;;;15.59;69.56;102171.16;5056814;28;20052;-76
2022/05/15 07:26:39;;;;;;;23.90;6.15;;;;;;;15.77;69.53;102165.97;5056919;28;20402;-74
2022/05/15 07:29:05;;;;;;;22.00;6.35;;;;;;;15.89;67.91;102169.38;5074975;28;20373;-75
2022/05/15 07:31:30;;;;;;;24.27;6.35;;;;;;;15.97;66.19;102169.53;5074376;28;20067;-73
2022/05/15 07:33:56;;;;;;;19.52;5.90;;;;;;;16.02;65.91;102161.88;5074601;28;20032;-71
2022/05/15 07:36:21;;;;;;;26.95;6.63;;;;;;;16.20;67.11;102161.16;5074184;28;20033;-74
2022/05/15 07:38:47;;;;;;;24.00;6.43;;;;;;;16.38;66.29;102158.59;5074821;28;20463;-77
2022/05/15 07:41:14;;;;;;;25.00;6.55;;;;;;;16.51;65.42;102151.06;5056963;28;20024;-76
2022/05/15 07:43:41;;;;;;;18.52;6.47;;;;;;;16.68;65.44;102156.66;5057611;28;20070;-77
2022/05/15 07:46:06;;;;;;;25.85;6.75;;;;;;;16.86;64.85;102151.34;5067290;28;20040;-80
2022/05/15 07:48:32;;;;;;;23.25;6.03;;;;;;;17.01;63.60;102152.56;5072244;28;20134;-81
2022/05/15 07:50:58;;;;;;;25.88;6.63;;;;;;;17.09;62.62;102149.13;5088306;28;20096;-82
2022/05/15 07:53:24;;;;;;;21.38;6.82;;;;;;;17.20;62.62;102146.22;5078964;28;20034;-79
2022/05/15 07:55:50;;;;;;;23.15;6.65;;;;;;;17.38;62.51;102153.50;5076675;28;20033;-82
2022/05/15 07:58:15;;;;;;;24.33;6.25;;;;;;;17.57;62.30;102153.34;5057696;28;20519;-80
2022/05/15 08:00:40;;;;;;;27.83;7.30;;;;;;;17.76;62.55;102149.63;5057442;28;20457;-81
2022/05/15 08:03:09;;;;;;;31.52;7.75;;;;;;;18.03;61.61;102145.16;5074422;28;20035;-82
2022/05/15 08:08:19;;;;;;;23.08;6.57;;;;;;;18.41;59.55;102135.00;5073914;28;20537;-81
2022/05/15 08:10:46;;;;;;;19.65;6.00;;;;;;;18.44;59.42;102126.59;5056923;28;20032;-80
2022/05/15 08:13:17;;;;;;;21.25;6.18;;;;;;;18.66;61.22;102129.72;5074309;28;20056;-81
2022/05/15 08:15:42;;;;;;;21.88;6.30;;;;;;;18.96;59.43;102131.09;5057059;28;20149;-81
2022/05/15 08:23:56;;;;;;;26.38;6.82;;;;;;;19.67;57.13;102117.22;5074652;28;20187;-80
2022/05/15 08:26:22;;;;;;;22.70;6.20;;;;;;;20.02;56.96;102110.66;5073826;28;20079;-78
2022/05/15 08:28:48;;;;;;;19.52;5.90;;;;;;;20.43;55.75;102105.13;5073708;28;20453;-77
2022/05/15 08:31:14;;;;;;;24.20;7.00;;;;;;;20.76;53.84;102107.75;5074018;28;20107;-81
2022/05/15 08:33:40;;;;;;;21.42;6.70;;;;;;;21.12;52.98;102103.69;5073795;28;20123;-78
2022/05/15 08:36:07;;;;;;;18.60;6.10;;;;;;;21.41;51.85;102097.56;5074488;28;20035;-81
2022/05/15 08:38:34;;;;;;;17.88;6.00;;;;;;;21.60;52.12;102098.97;5056150;28;20028;-81
2022/05/15 08:41:31;;;;;;;19.90;6.60;;;;;;;22.39;50.40;102094.16;5074225;28;20472;-81
2022/05/15 08:44:18;;;;;;;20.08;6.15;;;;;;;22.59;49.88;102091.75;5074320;28;20033;-81
2022/05/15 08:46:49;;;;;;;19.98;6.70;;;;;;;22.99;45.57;102098.50;5073840;28;20024;-79
2022/05/15 08:49:17;;;;;;;;;;;;;;;23.11;45.77;102104.28;5074061;28;20090;-79
2022/05/15 08:51:57;;;;;;;22.48;6.68;;;;;;;23.14;46.52;102105.75;5073666;28;20310;-79
2022/05/15 08:54:23;;;;;;;18.45;6.75;;;;;;;23.11;45.55;102104.28;5074165;28;20409;-78
2022/05/15 08:56:50;;;;;;;19.83;6.95;;;;;;;23.43;47.54;102099.38;5073970;28;20040;-80
2022/05/15 08:59:44;;;;;;;19.10;6.05;;;;;;;24.08;44.75;102099.31;5074218;28;20029;-79
2022/05/15 09:02:11;;;;;;;20.42;6.68;;;;;;;24.87;43.18;102086.34;5073556;28;20461;-80
2022/05/15 09:04:38;;;;;;;26.55;6.95;;;;;;;25.69;41.37;102084.41;5073615;28;20078;-81
2022/05/15 09:07:28;;;;;;;23.80;6.70;;;;;;;26.14;39.92;102081.03;5073721;28;20101;-81
2022/05/15 09:09:56;;;;;;;20.07;6.10;;;;;;;26.94;37.50;102072.56;5074159;28;20071;-81
2022/05/15 09:12:24;;;;;;;21.60;6.60;;;;;;;27.28;34.95;102074.00;5055857;28;20056;-81
2022/05/15 09:14:57;;;;;;;19.20;6.30;;;;;;;27.85;34.84;102075.06;5055643;28;20460;-81
2022/05/15 09:17:43;;;;;;;16.83;6.47;;;;;;;27.91;33.98;102072.25;5073818;28;20036;-79
2022/05/15 09:20:14;;;;;;;22.70;6.60;;;;;;;28.45;32.86;102067.03;5079080;28;20033;-82
2022/05/15 09:22:47;;;;;;;14.85;6.93;;;;;;;29.20;32.83;102074.06;5082897;28;20089;-82
2022/05/15 09:25:19;;;;;;;21.60;6.22;;;;;;;29.14;31.73;102074.16;5078423;28;20059;-81
2022/05/15 09:28:07;;;;;;;17.17;5.72;;;;;;;29.36;30.63;102069.00;5077513;28;20032;-83
2022/05/15 09:30:37;;;;;;;18.58;5.97;;;;;;;29.18;31.74;102075.34;5075760;28;20036;-82
2022/05/15 09:33:03;;;;;;;15.98;5.90;;;;;;;29.37;30.90;102073.41;5073667;28;20029;-82
2022/05/15 09:35:38;;;;;;;17.20;5.20;;;;;;;29.93;29.96;102076.66;5075257;28;20090;-78
2022/05/15 09:43:40;;;;;;;16.83;5.47;;;;;;;30.35;30.30;102067.41;5072696;28;20466;-73
2022/05/15 09:46:19;;;;;;;18.75;5.63;;;;;;;30.94;27.83;102068.06;5059068;28;20041;-76
2022/05/15 09:48:53;;;;;;;20.40;5.43;;;;;;;31.06;27.76;102058.97;5076585;28;20029;-78
2022/05/15 09:51:44;;;;;;;13.20;5.10;;;;;;;31.08;28.45;102065.88;5077080;28;20069;-79
2022/05/15 09:54:28;;;;;;;18.77;5.40;;;;;;;31.25;27.83;102062.31;5076690;28;20056;-79
2022/05/15 09:57:08;;;;;;;16.75;5.45;;;;;;;31.42;26.87;102065.88;5076541;28;20025;-76
2022/05/15 09:59:34;;;;;;;21.40;5.47;;;;;;;31.35;27.17;102073.50;5076641;28;20028;-78
2022/05/15 10:02:00;;;;;;;11.35;4.60;;;;;;;31.82;26.14;102062.13;5076582;28;20058;-81
2022/05/15 10:04:31;;;;;;;20.20;5.28;;;;;;;31.39;25.25;102060.06;5058805;28;20036;-81
2022/05/15 10:07:02;;;;;;;14.00;4.60;;;;;;;31.53;26.04;102058.66;5076885;28;20028;-81
2022/05/15 10:09:34;;;;;;;19.25;5.47;;;;;;;31.29;25.74;102064.31;5076620;28;20524;-82
2022/05/15 10:12:08;;;;;;;18.05;5.53;;;;;;;30.71;27.03;102052.53;5076415;28;20028;-79
2022/05/15 10:14:40;;;;;;;17.92;5.60;;;;;;;30.75;27.52;102050.13;5076584;28;20020;-80
2022/05/15 10:17:08;;;;;;;18.63;5.90;;;;;;;30.32;27.49;102046.81;5076440;28;20028;-79
2022/05/15 10:19:44;;;;;;;19.63;5.85;;;;;;;30.66;27.43;102037.88;5076622;28;20119;-80
2022/05/15 10:22:29;;;;;;;19.50;5.22;;;;;;;31.39;27.06;102040.81;5076306;28;20024;-82
2022/05/15 10:25:05;;;;;;;16.75;5.13;;;;;;;31.80;26.66;102042.31;5076670;28;20434;-81
2022/05/15 10:27:35;;;;;;;18.38;5.40;;;;;;;31.89;25.26;102033.59;5076402;28;20052;-78
2022/05/15 10:30:10;;;;;;;17.67;5.65;;;;;;;31.78;25.49;102038.13;5076605;28;20035;-80
2022/05/15 10:32:51;;;;;;;15.95;5.65;;;;;;;31.93;25.17;102034.75;5058243;28;20090;-81
2022/05/15 10:35:17;;;;;;;;;;;;;;;31.67;25.07;102030.84;5076473;28;20100;-77
2022/05/15 10:38:17;;;;;;;22.20;5.40;;;;;;;31.30;25.25;102038.47;5058166;28;19948;-81
2022/05/15 10:40:48;;;;;;;14.00;4.93;;;;;;;31.26;25.21;102037.31;5076621;28;20513;-81
2022/05/15 10:43:44;;;;;;;15.75;5.40;;;;;;;30.80;26.29;102032.91;5058731;28;20623;-80
2022/05/15 10:46:15;;;;;;;14.75;5.35;;;;;;;31.30;25.69;102029.41;5076152;28;20039;-78
2022/05/15 10:49:08;;;;;;;13.80;5.05;;;;;;;32.02;25.07;102030.47;5075892;28;20086;-77
2022/05/15 10:52:01;;;;;;;19.48;5.32;;;;;;;32.03;24.13;102020.31;5075710;28;20023;-81
2022/05/15 10:57:51;;;;;;;17.38;5.35;;;;;;;31.98;24.62;102021.09;5075267;28;20043;-80
2022/05/15 11:00:23;;;;;;;13.70;5.22;;;;;;;32.09;24.89;102013.78;5058169;28;20489;-83
2022/05/15 11:03:12;;;;;;;14.70;5.00;;;;;;;31.52;24.89;102012.97;5057321;28;20032;-80
2022/05/15 11:05:44;;;;;;;12.98;4.80;;;;;;;32.18;24.28;102012.28;5058180;28;20535;-79
2022/05/15 11:08:20;;;;;;;16.40;4.70;;;;;;;32.36;23.52;102002.03;5057407;28;20119;-81
2022/05/15 11:11:03;;;;;;;17.52;4.85;;;;;;;32.26;23.17;102003.56;5075218;28;20024;-80
2022/05/15 11:13:40;;;;;;;13.50;4.45;;;;;;;32.71;23.27;102000.75;5075386;28;20425;-80
2022/05/15 11:16:18;;;;;;;14.20;4.70;;;;;;;33.20;22.11;101995.97;5075633;28;20032;-80
2022/05/15 11:19:15;;;;;;;13.55;4.55;;;;;;;33.18;22.95;101992.59;5075239;28;20032;-80
2022/05/15 11:21:55;;;;;;;19.58;4.35;;;;;;;33.37;21.94;101995.00;5076103;28;20252;-79
2022/05/15 11:24:40;;;;;;;10.10;4.72;;;;;;;32.97;22.06;101988.03;5074905;28;20071;-79
2022/05/15 11:27:22;;;;;;;15.52;4.70;;;;;;;33.03;21.67;101985.06;5075490;28;20033;-78
2022/05/15 11:29:51;;;;;;;15.48;5.03;;;;;;;32.01;22.27;101973.78;5074858;28;20476;-80
2022/05/15 11:32:41;;;;;;;14.75;4.43;;;;;;;32.48;22.86;101975.16;5057632;28;20345;-78
2022/05/15 11:35:18;;;;;;;12.50;4.10;;;;;;;32.75;22.28;101968.84;5075270;28;20036;-83
2022/05/15 11:37:55;;;;;;;12.85;4.75;;;;;;;32.77;22.42;101964.72;5057111;28;20043;-83
2022/05/15 11:40:34;;;;;;;15.93;4.40;;;;;;;33.04;22.15;101961.91;5075205;28;20047;-82
2022/05/15 11:43:40;;;;;;;18.05;4.43;;;;;;;33.02;22.00;101957.75;5074747;28;20028;-85
2022/05/15 11:46:09;;;;;;;11.90;4.85;;;;;;;32.75;22.05;101944.03;5016932;28;20042;-86
2022/05/15 11:48:37;;;;;;;11.57;4.43;;;;;;;32.77;22.37;101939.09;5075809;28;20021;-86
2022/05/15 11:51:22;;;;;;;15.65;4.32;;;;;;;33.03;22.21;101932.69;5074789;28;20050;-85
2022/05/15 11:54:28;;;;;;;14.20;4.97;;;;;;;32.48;22.21;101944.88;5074811;28;20111;-81
2022/05/15 11:56:56;;;;;;;14.45;4.00;;;;;;;33.09;22.03;101946.53;5074571;28;20035;-84